Time;durP1;ratioP1;P1;durP2;ratioP2;P2;SDS_P1;SDS_P2;PMS_P1;PMS_P2;Temp;Humidity;BMP_temperature;BMP_pressure;BME280_temperature;BME280_humidity;BME280_pressure;Samples;Min_cycle;Max_cycle;Signal;HPM_P1;HPM_P2
2022/04/11 00:01:45;;;;;;;7.80;6.97;;;;;;;1.04;100.00;98572.41;5075868;28;20239;-60
2022/04/11 00:04:12;;;;;;;7.43;6.63;;;;;;;1.03;100.00;98568.09;5076336;28;20581;-61
2022/04/11 00:06:38;;;;;;;9.40;7.20;;;;;;;1.00;100.00;98570.78;5071925;28;20567;-61
2022/04/11 00:09:05;;;;;;;8.90;7.00;;;;;;;1.01;100.00;98571.63;5076282;28;20218;-60
2022/04/11 00:11:31;;;;;;;8.07;6.93;;;;;;;1.02;100.00;98569.00;5075638;28;20723;-61
2022/04/11 00:14:01;;;;;;;7.03;6.33;;;;;;;1.00;100.00;98565.56;5075835;28;20219;-61
2022/04/11 00:16:28;;;;;;;6.97;6.27;;;;;;;0.99;100.00;98563.84;5076109;28;20217;-62
2022/04/11 00:18:54;;;;;;;8.23;7.03;;;;;;;0.98;100.00;98567.34;5075848;28;20219;-62
2022/04/11 00:21:21;;;;;;;7.97;6.20;;;;;;;1.02;100.00;98553.38;5075875;28;20215;-61
2022/04/11 00:23:47;;;;;;;7.43;6.47;;;;;;;0.98;100.00;98556.94;5075700;28;20215;-60
2022/04/11 00:26:14;;;;;;;7.17;6.43;;;;;;;1.04;100.00;98561.16;5074205;28;20552;-62
2022/04/11 00:28:40;;;;;;;7.07;6.37;;;;;;;1.01;100.00;98556.03;5075604;28;20207;-62
2022/04/11 00:31:08;;;;;;;9.03;6.97;;;;;;;0.98;100.00;98561.31;5075761;28;20255;-62
2022/04/11 00:33:34;;;;;;;9.10;6.73;;;;;;;0.90;100.00;98558.91;5075723;28;20220;-63
2022/04/11 00:36:01;;;;;;;7.60;6.07;;;;;;;0.86;100.00;98554.66;5075295;28;20223;-62
2022/04/11 00:38:27;;;;;;;8.83;7.27;;;;;;;0.82;100.00;98553.03;5075622;28;20235;-62
2022/04/11 00:40:54;;;;;;;8.93;6.50;;;;;;;0.79;100.00;98549.63;5074531;28;20217;-62
2022/04/11 00:43:30;;;;;;;9.27;6.93;;;;;;;0.79;100.00;98555.69;5075189;28;20723;-62
2022/04/11 00:45:57;;;;;;;8.93;6.53;;;;;;;0.79;100.00;98547.88;5075446;28;20263;-61
2022/04/11 00:48:25;;;;;;;7.20;5.90;;;;;;;0.79;100.00;98545.28;5075423;28;20631;-62
2022/04/11 00:50:55;;;;;;;7.13;5.80;;;;;;;0.74;100.00;98546.31;5073681;28;20242;-61
2022/04/11 00:53:22;;;;;;;7.83;5.83;;;;;;;0.63;100.00;98538.72;5075393;28;20223;-61
2022/04/11 00:55:49;;;;;;;10.37;6.47;;;;;;;0.58;100.00;98540.59;5075335;28;20215;-61
2022/04/11 00:58:16;;;;;;;8.77;6.50;;;;;;;0.49;100.00;98534.78;5075227;28;20238;-61
2022/04/11 01:00:43;;;;;;;7.70;6.37;;;;;;;0.51;100.00;98543.38;5068458;28;20282;-61
2022/04/11 01:03:09;;;;;;;8.27;5.97;;;;;;;0.51;100.00;98544.22;5075185;28;20240;-62
2022/04/11 01:05:38;;;;;;;7.57;6.17;;;;;;;0.46;100.00;98530.50;5074933;28;20238;-61
2022/04/11 01:08:07;;;;;;;9.67;6.27;;;;;;;0.49;100.00;98525.19;5072216;28;20266;-62
2022/04/11 01:10:34;;;;;;;7.93;6.00;;;;;;;0.47;100.00;98532.19;5069927;28;20240;-62
2022/04/11 01:13:01;;;;;;;8.20;6.40;;;;;;;0.43;100.00;98530.53;5074675;28;20678;-62
2022/04/11 01:15:28;;;;;;;9.33;6.97;;;;;;;0.39;100.00;98541.06;5074964;28;20217;-62
2022/04/11 01:17:55;;;;;;;8.70;6.60;;;;;;;0.40;100.00;98541.03;5073204;28;20224;-62
2022/04/11 01:20:21;;;;;;;7.67;6.37;;;;;;;0.44;100.00;98532.25;5074967;28;20221;-62
2022/04/11 01:22:49;;;;;;;7.83;6.63;;;;;;;0.51;100.00;98539.00;5072327;28;20208;-62
2022/04/11 01:25:18;;;;;;;8.37;7.00;;;;;;;0.55;100.00;98538.06;5074632;28;20567;-62
2022/04/11 01:27:44;;;;;;;9.53;7.00;;;;;;;0.63;100.00;98533.53;5072071;28;20673;-62
2022/04/11 01:30:13;;;;;;;8.30;7.30;;;;;;;0.69;100.00;98528.19;5074213;28;20216;-62
2022/04/11 01:32:41;;;;;;;8.73;6.87;;;;;;;0.79;100.00;98529.69;5074117;28;20787;-61
2022/04/11 01:35:18;;;;;;;9.80;7.37;;;;;;;0.85;100.00;98524.31;5074421;28;20208;-61
2022/04/11 01:37:45;;;;;;;6.37;5.77;;;;;;;0.88;100.00;98526.00;5074116;28;20211;-61
2022/04/11 01:40:13;;;;;;;9.40;6.77;;;;;;;0.88;100.00;98534.66;5074326;28;20605;-62
2022/04/11 01:42:39;;;;;;;7.87;6.80;;;;;;;0.93;100.00;98532.78;5066324;28;20212;-62
2022/04/11 01:45:09;;;;;;;6.47;5.83;;;;;;;0.93;100.00;98532.78;5074341;28;20225;-62
2022/04/11 01:47:35;;;;;;;9.33;6.47;;;;;;;0.93;100.00;98532.78;5073831;28;20687;-61
2022/04/11 01:50:02;;;;;;;8.47;6.50;;;;;;;1.00;100.00;98534.34;5073962;28;20239;-61
2022/04/11 01:52:28;;;;;;;8.23;6.67;;;;;;;1.01;100.00;98520.47;5066733;28;20613;-62
2022/04/11 01:54:55;;;;;;;7.43;6.53;;;;;;;1.05;100.00;98521.22;5073846;28;20215;-63
2022/04/11 01:57:23;;;;;;;7.47;6.77;;;;;;;1.09;100.00;98521.09;5074035;28;20219;-62
2022/04/11 01:59:50;;;;;;;8.73;6.87;;;;;;;1.08;100.00;98516.81;5073590;28;20678;-62
2022/04/11 02:02:16;;;;;;;7.03;6.10;;;;;;;1.10;100.00;98515.00;5073846;28;20209;-62
2022/04/11 02:04:43;;;;;;;8.33;6.37;;;;;;;1.11;100.00;98513.25;5073962;28;20550;-62
2022/04/11 02:07:09;;;;;;;7.73;6.47;;;;;;;1.10;100.00;98517.59;5073780;28;20218;-62
2022/04/11 02:09:36;;;;;;;8.67;6.27;;;;;;;1.11;100.00;98506.28;5072236;28;20226;-62
2022/04/11 02:12:02;;;;;;;7.07;6.23;;;;;;;1.11;100.00;98501.09;5073647;28;20255;-62
2022/04/11 02:14:30;;;;;;;8.27;6.37;;;;;;;1.15;100.00;98497.53;5073663;28;20222;-62
2022/04/11 02:16:57;;;;;;;7.73;6.57;;;;;;;1.12;100.00;98502.78;5073677;28;20216;-61
2022/04/11 02:19:24;;;;;;;7.13;5.70;;;;;;;1.16;100.00;98499.22;5073468;28;20680;-61
2022/04/11 02:21:50;;;;;;;8.27;6.97;;;;;;;1.15;100.00;98494.91;5073798;28;20217;-60
2022/04/11 02:24:17;;;;;;;8.80;6.67;;;;;;;1.14;100.00;98492.34;5073654;28;20204;-60
2022/04/11 02:26:43;;;;;;;7.53;6.37;;;;;;;1.17;100.00;98480.09;5073577;28;20218;-60
2022/04/11 02:29:10;;;;;;;6.47;5.87;;;;;;;1.14;100.00;98488.00;5073585;28;20221;-61
2022/04/11 02:31:37;;;;;;;7.00;6.30;;;;;;;1.13;100.00;98483.69;5073436;28;20233;-62
2022/04/11 02:34:04;;;;;;;8.60;6.50;;;;;;;1.18;100.00;98484.41;5073593;28;20211;-62
2022/04/11 02:36:30;;;;;;;7.33;6.47;;;;;;;1.20;100.00;98473.97;5071073;28;20227;-61
2022/04/11 02:38:57;;;;;;;6.97;5.73;;;;;;;1.20;100.00;98472.22;5073090;28;20227;-60
2022/04/11 02:41:23;;;;;;;6.90;6.13;;;;;;;1.18;100.00;98476.59;5073060;28;20225;-61
2022/04/11 02:43:49;;;;;;;7.07;6.03;;;;;;;1.19;100.00;98467.91;5073291;28;20223;-61
2022/04/11 02:46:16;;;;;;;6.97;6.17;;;;;;;1.22;100.00;98462.63;5073199;28;20213;-62
2022/04/11 02:48:44;;;;;;;8.00;6.27;;;;;;;1.17;100.00;98459.28;5073275;28;20261;-62
2022/04/11 02:51:10;;;;;;;6.87;5.80;;;;;;;1.17;100.00;98456.69;5073142;28;20239;-62
2022/04/11 02:53:37;;;;;;;7.53;6.17;;;;;;;1.16;100.00;98451.53;5073393;28;20217;-62
2022/04/11 02:56:04;;;;;;;7.47;6.23;;;;;;;1.16;100.00;98447.16;5073178;28;20212;-62
2022/04/11 02:58:30;;;;;;;7.90;6.27;;;;;;;1.20;100.00;98437.53;5072858;28;20213;-63
2022/04/11 03:00:57;;;;;;;9.03;6.23;;;;;;;1.27;100.00;98442.53;5071444;28;20237;-62
2022/04/11 03:03:23;;;;;;;6.70;6.00;;;;;;;1.32;100.00;98437.19;5073095;28;20220;-62
2022/04/11 03:05:51;;;;;;;7.20;6.13;;;;;;;1.33;100.00;98441.50;5073008;28;20216;-62
2022/04/11 03:08:18;;;;;;;7.40;6.30;;;;;;;1.33;100.00;98444.97;5072902;28;20216;-62
2022/04/11 03:10:44;;;;;;;7.17;6.20;;;;;;;1.35;100.00;98431.91;5072961;28;20220;-62
2022/04/11 03:13:11;;;;;;;8.33;6.33;;;;;;;1.37;100.00;98425.75;5072973;28;20229;-62
2022/04/11 03:15:38;;;;;;;7.10;6.17;;;;;;;1.37;100.00;98420.56;5072599;28;20697;-62
2022/04/11 03:18:05;;;;;;;8.63;6.27;;;;;;;1.37;100.00;98427.50;5073027;28;20217;-62
2022/04/11 03:20:31;;;;;;;8.60;6.60;;;;;;;1.37;100.00;98417.94;5073273;28;20218;-62
2022/04/11 03:22:59;;;;;;;7.03;6.03;;;;;;;1.36;100.00;98408.41;5072730;28;20209;-62
2022/04/11 03:25:25;;;;;;;8.53;5.90;;;;;;;1.36;100.00;98411.00;5072877;28;20215;-62
2022/04/11 03:27:52;;;;;;;8.63;6.50;;;;;;;1.38;100.00;98410.97;5070866;28;20216;-61
2022/04/11 03:30:19;;;;;;;7.20;6.27;;;;;;;1.35;100.00;98411.91;5072894;28;20620;-61
2022/04/11 03:32:45;;;;;;;7.77;5.87;;;;;;;1.33;100.00;98407.63;5072396;28;20724;-60
2022/04/11 03:35:12;;;;;;;8.13;6.17;;;;;;;1.29;100.00;98412.09;5072488;28;20214;-61
2022/04/11 03:37:38;;;;;;;6.73;6.03;;;;;;;1.24;100.00;98408.75;5072559;28;20211;-61
2022/04/11 03:40:08;;;;;;;6.50;5.80;;;;;;;1.28;100.00;98410.38;5072920;28;20211;-61
2022/04/11 03:42:35;;;;;;;6.60;5.90;;;;;;;1.27;100.00;98413.88;5072545;28;20242;-60
2022/04/11 03:45:02;;;;;;;7.33;5.93;;;;;;;1.23;100.00;98412.25;5072417;28;20672;-62
2022/04/11 03:47:29;;;;;;;7.83;6.10;;;;;;;1.17;100.00;98411.59;5072521;28;20239;-61
2022/04/11 03:49:55;;;;;;;7.87;6.17;;;;;;;1.22;100.00;98409.72;5072547;28;20583;-61
2022/04/11 03:52:21;;;;;;;6.70;5.80;;;;;;;1.18;100.00;98408.91;5071375;28;20713;-62
2022/04/11 03:54:48;;;;;;;7.20;6.07;;;;;;;1.18;100.00;98405.47;5072130;28;20239;-61
2022/04/11 03:57:16;;;;;;;6.50;5.90;;;;;;;1.14;100.00;98411.66;5072249;28;20228;-61
2022/04/11 03:59:42;;;;;;;7.27;5.77;;;;;;;1.12;100.00;98414.28;5072243;28;20220;-61
2022/04/11 04:02:09;;;;;;;8.03;6.10;;;;;;;1.07;100.00;98408.38;5072586;28;20249;-60
2022/04/11 04:04:35;;;;;;;8.43;6.67;;;;;;;1.09;100.00;98414.41;5072479;28;20213;-61
2022/04/11 04:07:02;;;;;;;8.20;7.07;;;;;;;1.07;100.00;98408.38;5072073;28;20695;-61
2022/04/11 04:09:28;;;;;;;8.50;7.40;;;;;;;1.02;100.00;98410.25;5072505;28;20212;-61
2022/04/11 04:11:55;;;;;;;8.93;6.70;;;;;;;0.99;100.00;98405.13;5072351;28;20284;-61
2022/04/11 04:14:23;;;;;;;9.03;7.60;;;;;;;0.97;100.00;98393.91;5072435;28;20216;-62
2022/04/11 04:16:49;;;;;;;10.27;7.67;;;;;;;0.99;100.00;98404.28;5074558;28;20217;-62
2022/04/11 04:19:16;;;;;;;10.20;8.17;;;;;;;0.90;100.00;98397.56;5074340;28;20216;-61
2022/04/11 04:21:42;;;;;;;10.47;7.67;;;;;;;0.87;100.00;98392.44;5075660;28;20216;-61
2022/04/11 04:24:09;;;;;;;9.93;8.03;;;;;;;0.93;100.00;98387.06;5075763;28;20207;-61
2022/04/11 04:26:36;;;;;;;9.27;7.30;;;;;;;0.98;100.00;98389.56;5075714;28;20216;-61
2022/04/11 04:29:02;;;;;;;11.30;7.57;;;;;;;0.97;100.00;98383.50;5075425;28;20690;-61
2022/04/11 04:31:30;;;;;;;9.70;8.10;;;;;;;0.89;100.00;98385.47;5075722;28;20597;-61
2022/04/11 04:33:56;;;;;;;9.17;7.67;;;;;;;0.79;100.00;98375.31;5075771;28;20207;-62
2022/04/11 04:36:23;;;;;;;8.60;7.70;;;;;;;0.74;100.00;98380.66;5075775;28;20216;-61
2022/04/11 04:38:49;;;;;;;11.20;8.23;;;;;;;0.68;100.00;98379.97;5068937;28;20216;-61
2022/04/11 04:41:16;;;;;;;9.53;7.60;;;;;;;0.61;100.00;98389.69;5075377;28;20217;-61
2022/04/11 04:43:42;;;;;;;9.83;7.67;;;;;;;0.56;100.00;98386.34;5075570;28;20290;-62
2022/04/11 04:46:09;;;;;;;8.50;7.60;;;;;;;0.56;100.00;98383.75;5073883;28;20218;-62
2022/04/11 04:48:36;;;;;;;10.23;8.10;;;;;;;0.64;100.00;98374.00;5075282;28;20226;-62
2022/04/11 04:51:03;;;;;;;9.17;7.63;;;;;;;0.76;100.00;98384.09;5075275;28;20211;-61
2022/04/11 04:53:29;;;;;;;10.53;7.70;;;;;;;0.73;100.00;98383.28;5075348;28;20219;-61
2022/04/11 04:55:56;;;;;;;10.30;8.37;;;;;;;0.71;100.00;98391.16;5075291;28;20212;-62
2022/04/11 04:58:22;;;;;;;11.27;7.27;;;;;;;0.69;100.00;98387.72;5074913;28;21600;-62
2022/04/11 05:00:49;;;;;;;9.90;7.93;;;;;;;0.65;100.00;98386.13;5074956;28;20236;-62
2022/04/11 05:03:15;;;;;;;9.10;8.10;;;;;;;0.56;100.00;98388.94;5075217;28;20228;-61
2022/04/11 05:05:43;;;;;;;8.23;6.53;;;;;;;0.59;100.00;98391.47;5074781;28;20676;-62
2022/04/11 05:08:09;;;;;;;8.47;6.50;;;;;;;0.58;100.00;98388.91;5074988;28;20212;-62
2022/04/11 05:10:36;;;;;;;7.47;6.77;;;;;;;0.57;100.00;98393.25;5073408;28;20211;-60
2022/04/11 05:13:02;;;;;;;10.40;7.20;;;;;;;0.52;100.00;98391.66;5074803;28;20231;-62
2022/04/11 05:15:29;;;;;;;8.70;6.87;;;;;;;0.54;100.00;98390.72;5074788;28;20219;-62
2022/04/11 05:17:56;;;;;;;10.67;7.87;;;;;;;0.53;100.00;98401.16;5074934;28;20250;-61
2022/04/11 05:20:22;;;;;;;10.57;7.03;;;;;;;0.52;100.00;98394.25;5074789;28;20214;-61
2022/04/11 05:22:50;;;;;;;7.97;6.53;;;;;;;0.64;100.00;98388.75;5074732;28;20215;-60
2022/04/11 05:25:16;;;;;;;8.50;6.30;;;;;;;0.67;100.00;98389.53;5074482;28;20212;-60
2022/04/11 05:27:43;;;;;;;7.13;6.17;;;;;;;0.68;100.00;98390.38;5074162;28;20212;-61
2022/04/11 05:30:10;;;;;;;9.10;6.60;;;;;;;0.61;100.00;98389.69;5074631;28;20217;-61
2022/04/11 05:32:36;;;;;;;9.63;6.90;;;;;;;0.64;100.00;98392.22;5074456;28;20246;-61
2022/04/11 05:35:03;;;;;;;8.07;6.77;;;;;;;0.68;100.00;98393.00;5074591;28;20211;-61
2022/04/11 05:37:30;;;;;;;9.13;6.70;;;;;;;0.76;100.00;98386.69;5070233;28;20214;-61
2022/04/11 05:39:57;;;;;;;8.83;7.00;;;;;;;0.89;100.00;98384.59;5074350;28;20211;-61
2022/04/11 05:42:24;;;;;;;7.50;6.80;;;;;;;0.99;100.00;98393.88;5074314;28;20211;-61
2022/04/11 05:44:50;;;;;;;8.17;7.23;;;;;;;1.18;100.00;98385.50;5074396;28;20212;-62
2022/04/11 05:47:17;;;;;;;9.57;7.40;;;;;;;1.38;100.00;98392.75;5074324;28;20722;-61
2022/04/11 05:49:43;;;;;;;9.77;8.20;;;;;;;1.52;100.00;98383.63;5074040;28;20223;-61
2022/04/11 05:52:13;;;;;;;9.43;8.03;;;;;;;1.71;100.00;98382.19;5074220;28;20235;-62
2022/04/11 05:54:40;;;;;;;8.47;7.33;;;;;;;1.92;100.00;98378.94;5072053;28;20209;-61
2022/04/11 05:57:08;;;;;;;8.20;6.60;;;;;;;2.03;100.00;98379.44;5072623;28;20221;-61
2022/04/11 05:59:34;;;;;;;9.30;7.57;;;;;;;2.16;100.00;98383.38;5072780;28;20222;-62
2022/04/11 06:02:00;;;;;;;8.70;6.93;;;;;;;2.30;100.00;98375.09;5072294;28;20245;-61
2022/04/11 06:04:27;;;;;;;7.93;6.80;;;;;;;2.43;100.00;98376.38;5071210;28;20223;-61
2022/04/11 06:06:53;;;;;;;11.33;7.23;;;;;;;2.53;100.00;98378.66;5072409;28;20224;-62
2022/04/11 06:09:20;;;;;;;8.27;6.83;;;;;;;2.70;100.00;98381.53;5072571;28;20213;-61
2022/04/11 06:11:46;;;;;;;8.67;6.60;;;;;;;2.79;100.00;98386.44;5072045;28;20239;-61
2022/04/11 06:14:14;;;;;;;8.33;6.83;;;;;;;2.93;100.00;98392.03;5072279;28;20697;-60
2022/04/11 06:16:41;;;;;;;10.73;7.07;;;;;;;3.05;100.00;98389.00;5072272;28;20223;-60
2022/04/11 06:19:07;;;;;;;10.33;8.17;;;;;;;3.17;100.00;98388.56;5065801;28;20239;-61
2022/04/11 06:21:34;;;;;;;8.30;7.07;;;;;;;3.31;100.00;98385.44;5072239;28;20236;-60
2022/04/11 06:24:00;;;;;;;9.37;7.43;;;;;;;3.39;100.00;98386.88;5072234;28;20208;-60
2022/04/11 06:26:27;;;;;;;9.00;7.57;;;;;;;3.51;100.00;98378.59;5072214;28;20218;-60
2022/04/11 06:28:53;;;;;;;8.83;7.27;;;;;;;3.60;100.00;98388.69;5071878;28;20226;-62
2022/04/11 06:31:21;;;;;;;7.67;6.80;;;;;;;3.72;100.00;98388.22;5070708;28;20211;-62
2022/04/11 06:33:47;;;;;;;8.67;7.07;;;;;;;3.85;100.00;98388.63;5071793;28;20779;-61
2022/04/11 06:36:14;;;;;;;7.53;6.83;;;;;;;3.95;100.00;98396.03;5071801;28;20218;-62
2022/04/11 06:38:40;;;;;;;9.77;7.90;;;;;;;4.13;100.00;98390.09;5071254;28;20703;-61
2022/04/11 06:41:07;;;;;;;9.90;7.50;;;;;;;4.28;100.00;98393.88;5071947;28;20589;-62
2022/04/11 06:43:33;;;;;;;9.33;7.00;;;;;;;4.41;100.00;98392.44;5071717;28;20221;-60
2022/04/11 06:46:00;;;;;;;7.50;6.70;;;;;;;4.48;100.00;98392.16;5071907;28;20220;-61
2022/04/11 06:48:28;;;;;;;8.97;7.13;;;;;;;4.60;100.00;98385.53;5071676;28;20215;-62
2022/04/11 06:50:54;;;;;;;9.63;7.37;;;;;;;4.76;100.00;98392.69;5071784;28;20235;-61
2022/04/11 06:53:21;;;;;;;7.53;6.67;;;;;;;4.83;100.00;98386.28;5071366;28;20241;-62
2022/04/11 06:55:48;;;;;;;8.20;6.77;;;;;;;4.95;100.00;98377.88;5070086;28;20212;-61
2022/04/11 06:58:15;;;;;;;8.17;7.03;;;;;;;5.12;100.00;98374.56;5071918;28;20216;-62
2022/04/11 07:00:42;;;;;;;8.17;7.33;;;;;;;5.28;100.00;98380.81;5071784;28;20459;-62
2022/04/11 07:03:09;;;;;;;8.30;6.77;;;;;;;5.37;100.00;98376.00;5068081;28;20213;-60
2022/04/11 07:05:37;;;;;;;10.40;7.60;;;;;;;5.53;100.00;98379.66;5070735;28;20213;-61
2022/04/11 07:08:04;;;;;;;9.60;6.40;;;;;;;5.59;100.00;98381.13;5071733;28;20221;-61
2022/04/11 07:10:31;;;;;;;10.13;6.17;;;;;;;5.66;100.00;98386.03;5071659;28;20207;-61
2022/04/11 07:12:58;;;;;;;9.03;6.40;;;;;;;5.84;100.00;98385.22;5071250;28;20712;-60
2022/04/11 07:15:24;;;;;;;6.83;6.00;;;;;;;5.98;100.00;98387.22;5071340;28;20701;-60
2022/04/11 07:17:51;;;;;;;7.47;6.07;;;;;;;6.19;100.00;98384.44;5071415;28;20222;-62
2022/04/11 07:20:18;;;;;;;8.93;6.00;;;;;;;6.31;100.00;98383.84;5071574;28;20215;-61
2022/04/11 07:22:45;;;;;;;6.47;5.80;;;;;;;6.58;98.01;98381.63;5069608;28;20217;-62
2022/04/11 07:25:12;;;;;;;8.10;5.70;;;;;;;6.69;99.41;98377.56;5071084;28;20243;-61
2022/04/11 07:27:38;;;;;;;6.43;5.17;;;;;;;6.84;97.51;98389.91;5071294;28;20701;-62
2022/04/11 07:30:06;;;;;;;6.47;5.53;;;;;;;7.07;94.70;98381.72;5071217;28;20673;-61
2022/04/11 07:32:32;;;;;;;6.20;5.60;;;;;;;7.12;92.49;98379.72;5071274;28;20242;-65
2022/04/11 07:34:59;;;;;;;7.17;5.33;;;;;;;7.22;97.30;98375.69;5071360;28;20593;-62
2022/04/11 07:37:28;;;;;;;6.07;5.30;;;;;;;7.33;94.81;98368.94;5068424;28;20211;-62
2022/04/11 07:39:55;;;;;;;7.93;5.17;;;;;;;7.53;94.56;98365.25;5071413;28;20225;-61
2022/04/11 07:42:22;;;;;;;4.93;4.53;;;;;;;7.69;92.26;98366.09;5071413;28;20226;-62
2022/04/11 07:44:48;;;;;;;5.87;5.07;;;;;;;7.73;92.62;98367.66;5071444;28;20218;-61
2022/04/11 07:47:15;;;;;;;7.40;5.27;;;;;;;8.05;92.17;98364.97;5071206;28;20216;-60
2022/04/11 07:49:41;;;;;;;5.77;5.00;;;;;;;8.18;89.51;98370.38;5069751;28;20216;-61
2022/04/11 07:52:08;;;;;;;5.13;4.63;;;;;;;8.39;91.03;98366.59;5074002;28;20257;-62
2022/04/11 07:54:35;;;;;;;5.43;4.87;;;;;;;8.47;86.50;98364.34;5075061;28;20564;-61
2022/04/11 07:57:03;;;;;;;5.97;4.67;;;;;;;8.58;86.12;98375.97;5074706;28;20666;-62
2022/04/11 07:59:29;;;;;;;4.97;4.40;;;;;;;8.68;84.41;98374.50;5074701;28;20254;-61
2022/04/11 08:01:56;;;;;;;4.70;4.30;;;;;;;8.80;79.96;98375.56;5074469;28;20237;-62
2022/04/11 08:04:22;;;;;;;6.17;4.73;;;;;;;8.77;81.05;98376.63;5074902;28;20215;-62
2022/04/11 08:06:49;;;;;;;4.73;4.33;;;;;;;8.93;82.80;98371.31;5074698;28;20231;-61
2022/04/11 08:09:15;;;;;;;4.57;4.10;;;;;;;9.02;81.94;98370.75;5068147;28;20219;-62
2022/04/11 08:11:41;;;;;;;5.43;4.50;;;;;;;9.13;84.42;98363.06;5074666;28;20222;-62
2022/04/11 08:14:09;;;;;;;6.07;5.13;;;;;;;9.22;81.79;98362.50;5074581;28;20242;-61
2022/04/11 08:16:36;;;;;;;10.50;7.80;;;;;;;9.39;81.11;98364.97;5072796;28;20223;-60
2022/04/11 08:19:02;;;;;;;13.13;10.30;;;;;;;9.54;85.11;98364.88;5074551;28;20585;-61
2022/04/11 08:21:29;;;;;;;9.37;7.53;;;;;;;9.53;77.14;98357.91;5074900;28;20216;-61
2022/04/11 08:23:55;;;;;;;23.27;16.23;;;;;;;9.68;76.98;98361.41;5074463;28;20211;-61
2022/04/11 08:26:22;;;;;;;7.27;5.03;;;;;;;9.74;78.41;98361.00;5074460;28;20222;-61
2022/04/11 08:28:48;;;;;;;5.07;4.13;;;;;;;9.79;76.04;98359.78;5074557;28;20500;-61
2022/04/11 08:31:16;;;;;;;5.50;4.10;;;;;;;9.89;78.06;98360.03;5074449;28;20208;-61
2022/04/11 08:33:42;;;;;;;5.37;3.87;;;;;;;10.17;75.91;98363.53;5074064;28;20709;-60
2022/04/11 08:36:09;;;;;;;7.23;5.00;;;;;;;10.15;74.55;98359.28;5074141;28;20673;-61
2022/04/11 08:38:36;;;;;;;4.47;3.93;;;;;;;10.07;73.46;98356.28;5074252;28;20245;-60
2022/04/11 08:41:03;;;;;;;4.10;3.43;;;;;;;10.15;72.98;98352.22;5074791;28;20215;-60
2022/04/11 08:43:32;;;;;;;5.37;4.20;;;;;;;10.24;72.67;98353.41;5072803;28;20222;-60
2022/04/11 08:46:02;;;;;;;4.90;3.73;;;;;;;10.40;75.51;98346.19;5074133;28;20253;-60
2022/04/11 08:48:30;;;;;;;4.40;3.90;;;;;;;10.58;73.68;98351.13;5074063;28;20271;-60
2022/04/11 08:50:57;;;;;;;4.47;3.30;;;;;;;10.67;68.41;98349.66;5073997;28;20212;-60
2022/04/11 08:53:24;;;;;;;5.07;3.47;;;;;;;10.59;70.57;98350.16;5074073;28;20247;-61
2022/04/11 08:55:51;;;;;;;4.40;3.67;;;;;;;10.80;72.31;98340.81;5073685;28;20216;-62
2022/04/11 08:58:18;;;;;;;4.40;3.63;;;;;;;10.77;68.47;98342.84;5073949;28;20284;-62
2022/04/11 09:00:45;;;;;;;4.57;3.20;;;;;;;10.86;69.25;98343.06;5073872;28;20241;-62
2022/04/11 09:03:11;;;;;;;3.73;3.30;;;;;;;10.93;70.78;98341.69;5067048;28;20216;-62
2022/04/11 09:05:40;;;;;;;3.83;3.43;;;;;;;11.01;70.74;98343.84;5073900;28;20235;-62
2022/04/11 09:08:07;;;;;;;4.00;3.13;;;;;;;11.01;68.13;98343.84;5071976;28;20237;-61
2022/04/11 09:10:37;;;;;;;4.00;3.60;;;;;;;11.22;68.49;98337.06;5073775;28;20217;-60
2022/04/11 09:13:07;;;;;;;4.47;3.30;;;;;;;11.26;64.18;98331.47;5067635;28;20239;-61
2022/04/11 09:15:40;;;;;;;8.00;5.93;;;;;;;11.57;69.81;98327.53;5073254;28;20223;-60
2022/04/11 09:18:06;;;;;;;4.23;3.57;;;;;;;11.58;68.39;98329.22;5067229;28;20235;-61
2022/04/11 09:20:33;;;;;;;3.57;3.27;;;;;;;11.73;67.65;98322.91;5073470;28;20224;-61
2022/04/11 09:23:01;;;;;;;4.43;3.63;;;;;;;11.88;74.97;98322.66;5073531;28;20218;-62
2022/04/11 09:25:30;;;;;;;3.67;2.90;;;;;;;11.81;67.57;98320.56;5073482;28;20220;-60
2022/04/11 09:28:07;;;;;;;5.43;2.97;;;;;;;11.79;64.40;98317.19;5067141;28;20223;-62
2022/04/11 09:30:35;;;;;;;3.60;2.90;;;;;;;11.82;67.63;98320.44;5073077;28;20221;-60
2022/04/11 09:33:04;;;;;;;3.20;2.90;;;;;;;11.93;68.65;98320.50;5073258;28;20229;-62
2022/04/11 09:35:32;;;;;;;3.37;2.77;;;;;;;12.04;63.89;98327.72;5071804;28;20227;-61
2022/04/11 09:38:13;;;;;;;4.17;3.30;;;;;;;11.98;66.15;98317.56;5073221;28;20212;-61
2022/04/11 09:40:43;;;;;;;4.70;3.37;;;;;;;11.96;68.70;98316.78;5067659;28;20227;-62
2022/04/11 09:43:10;;;;;;;4.17;2.70;;;;;;;12.05;63.17;98316.16;5072795;28;20222;-63
2022/04/11 09:45:44;;;;;;;3.83;2.80;;;;;;;12.09;66.40;98307.00;5066593;28;20226;-60
2022/04/11 09:48:12;;;;;;;3.70;2.30;;;;;;;12.21;61.54;98298.16;5072802;28;20672;-60
2022/04/11 09:50:38;;;;;;;5.27;2.80;;;;;;;12.37;70.10;98298.75;5072904;28;20223;-61
2022/04/11 09:53:15;;;;;;;3.17;2.87;;;;;;;12.54;67.76;98291.22;5072743;28;20239;-60
2022/04/11 09:55:43;;;;;;;3.67;2.60;;;;;;;12.56;63.01;98293.78;5072709;28;20220;-62
2022/04/11 09:58:10;;;;;;;2.80;2.23;;;;;;;12.61;64.33;98284.53;5072806;28;20219;-61
2022/04/11 10:00:38;;;;;;;3.77;2.47;;;;;;;12.62;63.23;98277.41;5072374;28;20240;-61
2022/04/11 10:03:05;;;;;;;3.77;2.67;;;;;;;12.61;63.18;98288.97;5071355;28;20218;-60
2022/04/11 10:05:34;;;;;;;2.53;2.33;;;;;;;12.59;59.16;98278.47;5072488;28;20444;-60
2022/04/11 10:08:04;;;;;;;3.03;2.83;;;;;;;12.65;62.01;98272.72;5067539;28;20313;-62
2022/04/11 10:10:34;;;;;;;2.33;2.07;;;;;;;12.79;58.03;98279.63;5072338;28;20219;-60
2022/04/11 10:13:01;;;;;;;2.27;1.97;;;;;;;12.79;59.52;98269.03;5071579;28;20709;-61
2022/04/11 10:15:28;;;;;;;3.20;2.20;;;;;;;13.00;55.92;98257.66;5071931;28;20219;-62
2022/04/11 10:17:56;;;;;;;2.40;2.20;;;;;;;13.16;58.61;98265.28;5066131;28;20230;-61
2022/04/11 10:20:30;;;;;;;2.20;2.00;;;;;;;13.08;56.39;98263.22;5065824;28;20213;-62
2022/04/11 10:23:02;;;;;;;2.50;1.97;;;;;;;13.03;59.98;98256.56;5066671;28;20226;-62
2022/04/11 10:25:32;;;;;;;3.53;1.97;;;;;;;13.07;60.09;98260.69;5070563;28;20691;-62
2022/04/11 10:28:23;;;;;;;4.60;1.97;;;;;;;13.16;57.07;98252.00;5060281;28;20215;-62
2022/04/11 10:31:08;;;;;;;2.20;2.00;;;;;;;13.15;64.69;98251.16;5065153;28;20268;-60
2022/04/11 10:33:46;;;;;;;2.53;2.30;;;;;;;13.32;65.61;98250.69;5062712;28;20249;-62
2022/04/11 10:36:40;;;;;;;2.40;2.03;;;;;;;13.32;63.44;98247.22;5063562;28;20223;-62
2022/04/11 10:39:24;;;;;;;5.00;2.00;;;;;;;13.32;54.64;98245.38;5042920;28;20218;-62
2022/04/11 10:42:11;;;;;;;2.17;1.73;;;;;;;13.43;56.67;98244.53;5061756;28;20273;-61
2022/04/11 10:44:41;;;;;;;2.13;1.97;;;;;;;13.37;52.83;98245.88;5064311;28;20218;-61
2022/04/11 10:47:31;;;;;;;2.13;1.90;;;;;;;13.49;60.02;98236.94;5064561;28;20218;-61
2022/04/11 10:50:27;;;;;;;2.33;2.07;;;;;;;13.44;57.51;98240.94;5063671;28;20219;-60
2022/04/11 10:53:08;;;;;;;2.05;1.85;;;;;;;13.27;51.08;98230.78;5067483;28;20226;-60
2022/04/11 10:55:35;;;;;;;2.10;1.90;;;;;;;13.42;55.92;98241.03;5059409;28;20539;-62
2022/04/11 10:58:02;;;;;;;2.30;1.80;;;;;;;13.56;55.31;98230.16;5061886;28;20680;-61
2022/04/11 11:00:32;;;;;;;1.70;1.60;;;;;;;13.53;54.01;98229.56;5064904;28;20705;-62
2022/04/11 11:03:09;;;;;;;2.70;1.70;;;;;;;13.60;60.06;98223.66;5062904;28;20219;-61
2022/04/11 11:05:38;;;;;;;2.27;1.80;;;;;;;13.67;60.07;98219.53;5062069;28;20698;-62
2022/04/11 11:08:34;;;;;;;2.13;1.80;;;;;;;13.65;57.08;98207.34;5064720;28;20701;-62
2022/04/11 11:11:19;;;;;;;2.93;2.10;;;;;;;13.71;55.54;98217.47;5024377;28;20635;-61
2022/04/11 11:13:46;;;;;;;1.87;1.70;;;;;;;13.76;56.12;98217.97;5056929;28;20231;-62
2022/04/11 11:16:59;;;;;;;2.40;1.80;;;;;;;13.82;55.43;98210.31;5065160;28;20214;-61
2022/04/11 11:19:26;;;;;;;2.07;1.87;;;;;;;13.88;52.75;98195.72;5062816;28;20238;-61
2022/04/11 11:22:04;;;;;;;2.00;1.80;;;;;;;13.82;50.52;98191.72;5062902;28;20222;-61
2022/04/11 11:24:30;;;;;;;2.17;1.67;;;;;;;13.81;50.01;98190.03;5068035;28;20222;-61
2022/04/11 11:27:02;;;;;;;2.33;1.83;;;;;;;13.97;51.25;98177.22;5065384;28;20216;-61
2022/04/11 11:29:30;;;;;;;3.80;2.10;;;;;;;14.08;54.61;98178.97;5068686;28;20591;-61
2022/04/11 11:32:00;;;;;;;2.30;1.87;;;;;;;14.02;50.43;98168.84;5068753;28;20835;-60
2022/04/11 11:34:28;;;;;;;2.43;1.70;;;;;;;14.18;57.41;98169.28;5066762;28;20239;-60
2022/04/11 11:36:58;;;;;;;2.60;2.10;;;;;;;14.23;53.09;98159.16;5065206;28;20228;-60
2022/04/11 11:39:26;;;;;;;2.53;2.10;;;;;;;14.25;54.71;98163.34;5066653;28;20215;-62